Time;durP1;ratioP1;P1;durP2;ratioP2;P2;SDS_P1;SDS_P2;PMS_P1;PMS_P2;Temp;Humidity;BMP_temperature;BMP_pressure;BME280_temperature;BME280_humidity;BME280_pressure;Samples;Min_cycle;Max_cycle;Signal;HPM_P1;HPM_P2
2022/06/06 00:02:22;;;;;;;4.63;1.27;;;16.70;66.70;;;;;;4953244;29;20482;-79
2022/06/06 00:04:48;;;;;;;3.25;1.15;;;16.60;67.50;;;;;;4953907;29;20039;-80
2022/06/06 00:07:14;;;;;;;1.17;0.70;;;16.50;67.60;;;;;;4956220;28;20028;-79
2022/06/06 00:09:40;;;;;;;3.35;1.08;;;16.50;67.30;;;;;;4955990;28;20051;-79
2022/06/06 00:12:06;;;;;;;1.65;1.00;;;16.50;67.10;;;;;;4955793;28;20042;-79
2022/06/06 00:14:32;;;;;;;1.50;1.00;;;16.50;67.20;;;;;;4953715;28;20078;-80
2022/06/06 00:16:58;;;;;;;1.35;0.75;;;16.50;67.30;;;;;;4954800;28;20094;-80
2022/06/06 00:19:24;;;;;;;5.32;1.25;;;16.40;67.40;;;;;;4954514;28;20102;-79
2022/06/06 00:21:50;;;;;;;1.15;0.80;;;16.40;67.10;;;;;;4955703;28;20027;-79
2022/06/06 00:24:16;;;;;;;1.20;0.90;;;16.30;67.20;;;;;;4953463;28;20039;-79
2022/06/06 00:26:43;;;;;;;1.17;0.88;;;16.30;67.40;;;;;;4954482;28;20027;-79
2022/06/06 00:29:12;;;;;;;1.98;0.80;;;16.40;67.10;;;;;;4955798;29;20034;-79
2022/06/06 00:37:12;;;;;;;3.28;0.93;;;16.30;66.70;;;;;;4936683;29;20127;-79
2022/06/06 00:39:38;;;;;;;1.88;0.77;;;16.30;66.50;;;;;;4936264;29;20063;-79
2022/06/06 00:42:16;;;;;;;3.85;1.00;;;16.30;66.80;;;;;;4936181;29;20051;-79
2022/06/06 00:44:42;;;;;;;4.00;0.95;;;16.30;66.60;;;;;;4951326;28;20039;-80
2022/06/06 00:47:24;;;;;;;2.58;1.10;;;16.20;66.70;;;;;;4951145;29;20028;-79
2022/06/06 00:50:01;;;;;;;2.95;1.00;;;16.20;67.10;;;;;;4950887;28;20044;-79
2022/06/06 00:52:32;;;;;;;1.90;1.10;;;16.10;67.40;;;;;;4936341;29;20030;-79
2022/06/06 00:55:04;;;;;;;2.20;0.90;;;16.00;67.60;;;;;;4936281;29;20054;-78
2022/06/06 00:57:35;;;;;;;4.32;1.17;;;16.00;67.90;;;;;;4936119;29;20071;-79
2022/06/06 01:00:17;;;;;;;1.75;1.05;;;15.80;68.30;;;;;;4936172;29;20084;-79
2022/06/06 01:02:44;;;;;;;0.88;0.60;;;15.70;69.00;;;;;;4936505;29;20517;-79
2022/06/06 01:05:10;;;;;;;2.40;0.85;;;15.80;69.20;;;;;;4950992;29;20071;-79
2022/06/06 01:07:36;;;;;;;2.55;0.77;;;15.90;68.30;;;;;;4939654;29;20095;-79
2022/06/06 01:10:02;;;;;;;3.88;0.90;;;16.00;68.00;;;;;;4938669;29;20024;-80
2022/06/06 01:12:31;;;;;;;2.15;0.90;;;16.10;67.80;;;;;;4939783;29;20043;-80
2022/06/06 01:15:01;;;;;;;1.60;0.80;;;16.10;67.50;;;;;;4954779;28;20031;-80
2022/06/06 01:17:49;;;;;;;4.05;1.50;;;15.90;68.30;;;;;;4939719;29;20167;-80
2022/06/06 01:20:33;;;;;;;0.90;0.73;;;15.90;68.20;;;;;;4943293;29;20019;-80
2022/06/06 01:23:22;;;;;;;1.30;0.93;;;15.90;68.80;;;;;;4957631;28;20737;-80
2022/06/06 01:26:16;;;;;;;2.40;0.90;;;15.80;68.30;;;;;;4957781;28;20438;-80
2022/06/06 01:29:08;;;;;;;3.33;1.52;;;15.80;69.00;;;;;;4951414;28;20035;-80
2022/06/06 01:31:50;;;;;;;2.75;1.00;;;15.80;69.10;;;;;;4938476;29;20510;-80
2022/06/06 01:34:25;;;;;;;1.02;0.73;;;15.80;69.10;;;;;;4958118;29;20063;-80
2022/06/06 01:36:53;;;;;;;3.72;1.20;;;15.80;69.00;;;;;;4952039;28;20066;-80
2022/06/06 01:39:21;;;;;;;1.33;0.85;;;15.90;68.90;;;;;;4954202;29;20086;-80
2022/06/06 01:41:50;;;;;;;1.20;0.85;;;15.90;68.60;;;;;;4939324;29;20048;-80
2022/06/06 01:44:40;;;;;;;1.25;0.85;;;15.90;68.60;;;;;;4938021;29;20032;-80
2022/06/06 01:47:11;;;;;;;1.25;0.93;;;15.80;68.60;;;;;;4939288;29;20066;-79
2022/06/06 01:49:39;;;;;;;3.53;1.00;;;15.80;68.70;;;;;;4949298;29;20062;-80
2022/06/06 01:52:12;;;;;;;1.92;1.02;;;15.80;68.60;;;;;;4958268;28;20086;-79
2022/06/06 01:54:39;;;;;;;1.27;1.10;;;15.80;69.20;;;;;;4955606;28;20035;-79
2022/06/06 01:57:06;;;;;;;4.18;1.23;;;15.70;69.60;;;;;;4938960;29;20398;-79
2022/06/06 01:59:32;;;;;;;1.73;1.00;;;15.60;70.00;;;;;;4939033;29;20032;-79
2022/06/06 02:01:58;;;;;;;3.13;1.05;;;15.50;69.60;;;;;;4952247;29;20031;-79
2022/06/06 02:04:24;;;;;;;2.25;1.10;;;15.50;69.80;;;;;;4957001;28;20032;-79
2022/06/06 02:06:51;;;;;;;3.78;1.08;;;15.40;70.20;;;;;;4956668;28;20544;-79
2022/06/06 02:09:20;;;;;;;2.95;0.93;;;15.50;70.40;;;;;;4955940;28;20046;-79
2022/06/06 02:11:46;;;;;;;3.65;1.20;;;15.50;70.40;;;;;;4957948;28;20417;-79
2022/06/06 02:14:12;;;;;;;1.88;0.90;;;15.50;70.20;;;;;;4956833;28;20031;-79
2022/06/06 02:16:38;;;;;;;1.67;1.10;;;15.40;70.40;;;;;;4955776;28;20035;-82
2022/06/06 02:19:05;;;;;;;4.57;1.30;;;15.30;70.40;;;;;;4971826;28;20501;-79
2022/06/06 02:21:31;;;;;;;3.35;0.98;;;15.30;70.80;;;;;;4957677;29;20090;-79
2022/06/06 02:23:57;;;;;;;2.15;1.08;;;15.30;70.90;;;;;;4939814;28;20074;-79
2022/06/06 02:26:23;;;;;;;2.22;1.33;;;15.30;71.00;;;;;;4938480;29;20027;-79
2022/06/06 02:28:49;;;;;;;2.30;1.00;;;15.30;70.20;;;;;;4937571;29;20038;-79
2022/06/06 02:31:15;;;;;;;3.53;1.20;;;15.20;71.20;;;;;;4938562;29;20028;-78
2022/06/06 02:33:41;;;;;;;4.88;1.40;;;15.20;70.70;;;;;;4952448;29;20031;-79
2022/06/06 02:36:06;;;;;;;5.32;1.13;;;15.20;70.60;;;;;;4972602;28;20031;-79
2022/06/06 02:38:32;;;;;;;1.85;1.45;;;15.30;70.20;;;;;;4941449;28;20099;-79
2022/06/06 02:41:10;;;;;;;1.50;0.90;;;15.30;69.90;;;;;;4938128;29;20072;-79
2022/06/06 02:43:42;;;;;;;1.67;1.08;;;15.30;70.10;;;;;;4938523;29;20586;-79
2022/06/06 02:46:09;;;;;;;1.88;1.10;;;15.20;70.50;;;;;;4938228;29;20027;-79
2022/06/06 02:48:43;;;;;;;4.28;1.08;;;15.20;70.10;;;;;;4938158;29;20036;-79
2022/06/06 02:51:09;;;;;;;2.25;1.20;;;15.20;69.90;;;;;;4936793;29;20032;-79
2022/06/06 02:53:35;;;;;;;1.63;0.98;;;15.20;69.50;;;;;;4952949;28;20035;-79
2022/06/06 02:56:01;;;;;;;7.43;1.67;;;15.10;70.50;;;;;;4938016;29;20028;-79
2022/06/06 02:58:27;;;;;;;2.55;1.10;;;15.00;70.40;;;;;;4937958;29;20575;-79
2022/06/06 03:01:00;;;;;;;2.53;1.20;;;15.00;71.50;;;;;;4938232;29;20028;-79
2022/06/06 03:03:27;;;;;;;2.50;1.00;;;14.90;70.70;;;;;;4952658;29;20506;-79
2022/06/06 03:06:05;;;;;;;3.45;1.00;;;14.90;70.90;;;;;;4952299;29;20051;-79
2022/06/06 03:08:45;;;;;;;3.83;1.10;;;14.90;71.30;;;;;;4936399;29;20024;-79
2022/06/06 03:11:17;;;;;;;3.38;1.20;;;15.00;70.90;;;;;;4937828;29;20047;-79
2022/06/06 03:14:01;;;;;;;2.20;0.93;;;15.00;70.70;;;;;;4937685;29;20406;-79
2022/06/06 03:23:08;;;;;;;2.08;1.10;;;14.80;71.10;;;;;;4940341;28;20034;-79
2022/06/06 03:26:07;;;;;;;2.10;1.52;;;14.70;71.40;;;;;;4936366;29;20024;-79
2022/06/06 03:29:13;;;;;;;2.50;1.20;;;14.70;71.80;;;;;;4937022;29;20023;-79
2022/06/06 03:31:48;;;;;;;3.13;1.30;;;14.70;71.70;;;;;;4937562;29;20031;-79
2022/06/06 03:34:38;;;;;;;4.68;1.35;;;14.70;72.10;;;;;;4954478;29;20110;-79
2022/06/06 03:37:16;;;;;;;1.85;1.13;;;14.60;72.50;;;;;;4956746;28;20031;-79
2022/06/06 03:40:02;;;;;;;3.47;1.20;;;14.60;71.90;;;;;;4956400;28;20651;-80
2022/06/06 03:42:28;;;;;;;1.33;1.15;;;14.70;71.80;;;;;;4935644;29;20083;-79
2022/06/06 03:45:24;;;;;;;1.33;0.85;;;14.60;72.00;;;;;;4936031;29;20031;-80
2022/06/06 03:48:14;;;;;;;1.55;1.25;;;14.50;72.10;;;;;;4951828;28;20059;-80
2022/06/06 03:50:52;;;;;;;2.15;0.95;;;14.50;71.60;;;;;;4964290;28;20124;-80
2022/06/06 03:53:27;;;;;;;2.20;1.05;;;14.50;72.10;;;;;;4951854;28;20047;-79
2022/06/06 03:56:02;;;;;;;2.15;1.00;;;14.50;72.30;;;;;;4935613;29;20024;-79
2022/06/06 03:58:31;;;;;;;3.33;1.45;;;14.50;71.90;;;;;;4937095;29;20032;-79
2022/06/06 04:01:02;;;;;;;2.95;1.40;;;14.50;71.60;;;;;;4935607;29;20558;-79
2022/06/06 04:03:28;;;;;;;3.22;1.60;;;14.50;71.70;;;;;;4936905;29;20035;-79
2022/06/06 04:05:55;;;;;;;1.73;1.00;;;14.50;72.00;;;;;;4936814;29;20051;-79
2022/06/06 04:08:32;;;;;;;2.45;1.70;;;14.50;71.70;;;;;;4951365;29;20040;-79
2022/06/06 04:11:01;;;;;;;6.05;2.08;;;14.50;71.50;;;;;;4941292;29;20045;-79
2022/06/06 04:13:50;;;;;;;2.60;1.15;;;14.40;71.70;;;;;;4955769;28;20038;-79
2022/06/06 04:16:37;;;;;;;1.95;1.30;;;14.30;71.70;;;;;;4954574;28;20122;-79
2022/06/06 04:19:27;;;;;;;3.40;1.63;;;14.30;72.00;;;;;;4954470;28;20035;-79
2022/06/06 04:22:17;;;;;;;3.90;1.85;;;14.30;72.60;;;;;;4965171;28;20609;-79
2022/06/06 04:24:52;;;;;;;4.10;1.75;;;14.30;72.80;;;;;;4955743;28;20027;-79
2022/06/06 04:27:38;;;;;;;3.30;1.52;;;14.30;72.70;;;;;;4954575;28;20078;-79
2022/06/06 04:30:20;;;;;;;2.22;1.30;;;14.30;72.50;;;;;;4953660;28;20035;-80
2022/06/06 04:33:00;;;;;;;2.08;1.52;;;14.30;73.00;;;;;;4955822;28;20029;-80
2022/06/06 04:36:07;;;;;;;2.08;1.48;;;14.30;72.70;;;;;;4954343;28;20028;-80
2022/06/06 04:38:37;;;;;;;4.22;1.70;;;14.30;73.20;;;;;;4963170;28;20050;-80
2022/06/06 04:41:27;;;;;;;1.90;1.30;;;14.30;73.40;;;;;;4937537;29;20043;-80
2022/06/06 04:44:13;;;;;;;1.88;1.23;;;14.30;73.20;;;;;;4940446;29;20030;-80
2022/06/06 04:47:13;;;;;;;2.85;1.40;;;14.20;73.60;;;;;;4940436;29;20060;-80
2022/06/06 04:49:39;;;;;;;3.80;1.50;;;14.20;73.10;;;;;;4955198;28;20031;-80
2022/06/06 04:52:05;;;;;;;2.13;1.48;;;14.30;72.60;;;;;;4954957;29;20035;-80
2022/06/06 04:54:35;;;;;;;6.13;1.60;;;14.30;72.60;;;;;;4955092;28;20692;-80
2022/06/06 04:57:03;;;;;;;3.05;1.73;;;14.30;72.80;;;;;;4940023;29;20027;-79
2022/06/06 04:59:30;;;;;;;4.35;1.60;;;14.30;73.50;;;;;;4954659;28;20035;-80
2022/06/06 05:01:59;;;;;;;2.45;1.35;;;14.30;73.80;;;;;;4954938;29;20028;-80
2022/06/06 05:04:25;;;;;;;2.63;1.40;;;14.30;73.30;;;;;;4952547;29;20038;-80
2022/06/06 05:07:00;;;;;;;4.10;1.60;;;14.20;74.00;;;;;;4959360;28;20119;-80
2022/06/06 05:09:53;;;;;;;3.85;1.40;;;14.30;73.50;;;;;;4958989;28;20565;-80
2022/06/06 05:12:33;;;;;;;4.30;1.23;;;14.30;73.50;;;;;;4957444;28;20490;-80
2022/06/06 05:15:08;;;;;;;3.40;1.58;;;14.40;73.90;;;;;;4958876;28;20054;-80
2022/06/06 05:17:47;;;;;;;5.18;1.60;;;14.50;73.70;;;;;;4959078;28;20090;-80
2022/06/06 05:20:40;;;;;;;2.80;1.77;;;14.50;73.30;;;;;;4949299;28;20055;-80
2022/06/06 05:24:04;;;;;;;3.47;1.42;;;14.50;74.00;;;;;;4957539;28;20045;-80
2022/06/06 05:26:30;;;;;;;2.70;1.60;;;14.50;74.60;;;;;;4951881;28;20059;-80
2022/06/06 05:29:01;;;;;;;3.83;1.67;;;14.50;74.40;;;;;;4939307;29;20086;-80
2022/06/06 05:31:59;;;;;;;2.08;1.52;;;14.60;74.30;;;;;;4938495;29;20106;-80
2022/06/06 05:34:36;;;;;;;3.40;1.45;;;14.50;74.50;;;;;;4937881;29;20560;-79
2022/06/06 05:37:04;;;;;;;2.85;1.65;;;14.60;75.00;;;;;;4959546;28;20038;-80
2022/06/06 05:39:54;;;;;;;4.35;1.60;;;14.70;74.40;;;;;;4958460;28;20027;-80
2022/06/06 05:42:44;;;;;;;2.30;1.42;;;14.60;74.70;;;;;;4938088;29;20402;-80
2022/06/06 05:45:39;;;;;;;2.28;1.40;;;14.70;74.60;;;;;;4939238;29;20039;-80
2022/06/06 05:48:42;;;;;;;5.00;1.60;;;14.70;74.50;;;;;;4938229;29;20506;-80
2022/06/06 05:51:39;;;;;;;4.50;1.48;;;14.70;74.40;;;;;;4938172;29;20027;-80
2022/06/06 05:54:42;;;;;;;4.45;1.65;;;14.70;74.40;;;;;;4938046;29;20523;-80
2022/06/06 05:57:31;;;;;;;2.72;1.27;;;14.70;74.50;;;;;;4948449;29;20803;-80
2022/06/06 06:00:04;;;;;;;2.03;1.23;;;14.70;74.70;;;;;;4957026;28;20142;-80
2022/06/06 06:03:06;;;;;;;3.80;1.70;;;14.70;74.70;;;;;;4957060;28;20034;-80
2022/06/06 06:05:38;;;;;;;3.47;1.92;;;14.70;75.20;;;;;;4953161;28;20532;-80
2022/06/06 06:08:17;;;;;;;1.98;1.52;;;14.80;74.70;;;;;;4953539;29;20032;-79
2022/06/06 06:10:54;;;;;;;4.75;1.73;;;14.90;74.70;;;;;;4940582;29;20030;-80
2022/06/06 06:13:57;;;;;;;3.20;1.40;;;15.00;74.40;;;;;;4956721;28;20066;-80
2022/06/06 06:16:26;;;;;;;7.32;1.52;;;15.00;74.50;;;;;;4935175;29;20040;-80
2022/06/06 06:19:04;;;;;;;1.67;1.30;;;14.90;75.30;;;;;;4938834;29;20035;-80
2022/06/06 06:21:37;;;;;;;3.03;1.40;;;15.00;75.30;;;;;;4961614;28;20039;-80
2022/06/06 06:24:06;;;;;;;2.95;1.40;;;15.10;75.10;;;;;;4957929;28;20135;-80
2022/06/06 06:26:31;;;;;;;3.47;1.55;;;15.10;75.20;;;;;;4957876;29;20091;-80
2022/06/06 06:29:01;;;;;;;1.95;1.17;;;15.10;75.50;;;;;;4955068;29;20521;-80
2022/06/06 06:31:52;;;;;;;2.42;1.40;;;15.20;75.20;;;;;;4957665;28;20082;-80
2022/06/06 06:34:33;;;;;;;2.22;1.30;;;15.30;75.50;;;;;;4952164;28;20063;-80
2022/06/06 06:37:16;;;;;;;2.50;1.38;;;15.40;75.20;;;;;;4938441;29;20029;-80
2022/06/06 06:39:42;;;;;;;2.95;1.23;;;15.50;75.30;;;;;;4938131;29;20075;-80
2022/06/06 06:42:31;;;;;;;1.85;1.00;;;15.60;75.10;;;;;;4938184;29;20050;-80
2022/06/06 06:45:07;;;;;;;2.13;1.20;;;15.60;75.30;;;;;;4938263;29;20032;-80
2022/06/06 06:47:35;;;;;;;1.33;1.02;;;15.70;75.20;;;;;;4945552;29;20085;-80
2022/06/06 06:50:14;;;;;;;1.60;1.20;;;15.90;74.70;;;;;;4957583;28;20031;-80
2022/06/06 06:53:10;;;;;;;1.60;1.30;;;16.10;74.30;;;;;;4955849;28;20042;-80
2022/06/06 06:55:42;;;;;;;3.05;1.20;;;16.20;74.00;;;;;;4954956;28;20031;-80
2022/06/06 06:58:30;;;;;;;7.03;1.30;;;16.30;73.20;;;;;;4955743;29;20027;-79
2022/06/06 07:01:02;;;;;;;1.15;0.88;;;16.40;73.10;;;;;;4940478;28;20095;-80
2022/06/06 07:10:21;;;;;;;0.90;0.75;;;16.50;72.90;;;;;;4937879;29;20128;-80
2022/06/06 07:12:47;;;;;;;1.33;0.80;;;16.60;72.10;;;;;;4933392;29;20035;-80
2022/06/06 07:15:38;;;;;;;1.05;0.68;;;16.80;71.80;;;;;;4935065;29;20112;-80
2022/06/06 07:18:06;;;;;;;3.80;0.90;;;16.80;71.50;;;;;;4935944;29;20047;-80
2022/06/06 07:20:35;;;;;;;3.25;0.73;;;17.00;70.90;;;;;;4958000;28;20062;-80
2022/06/06 07:23:09;;;;;;;0.88;0.63;;;17.10;70.80;;;;;;4956706;28;20457;-80
2022/06/06 07:25:44;;;;;;;2.30;0.68;;;17.30;70.00;;;;;;4956536;28;20027;-81
2022/06/06 07:28:19;;;;;;;4.60;1.00;;;17.40;69.10;;;;;;4956510;28;20027;-80
2022/06/06 07:31:15;;;;;;;1.30;0.60;;;17.80;68.20;;;;;;4937445;28;20027;-81
2022/06/06 07:34:03;;;;;;;1.15;0.77;;;18.60;65.40;;;;;;4965972;28;20110;-81
2022/06/06 07:36:49;;;;;;;1.50;0.40;;;20.30;60.60;;;;;;4955281;28;20139;-81
2022/06/06 07:39:15;;;;;;;1.60;0.60;;;23.10;53.00;;;;;;4936014;29;20046;-80
2022/06/06 07:41:59;;;;;;;2.28;0.65;;;23.10;51.60;;;;;;4935639;29;20076;-81
2022/06/06 07:44:35;;;;;;;2.28;0.60;;;23.50;50.00;;;;;;4936008;29;20039;-81
2022/06/06 07:47:10;;;;;;;4.85;0.50;;;24.90;46.80;;;;;;4937031;29;20106;-81
2022/06/06 07:49:51;;;;;;;2.10;0.50;;;25.00;44.80;;;;;;4951107;28;20050;-81
2022/06/06 07:52:31;;;;;;;3.83;0.43;;;24.30;47.10;;;;;;4956245;28;20426;-81
2022/06/06 07:54:57;;;;;;;2.08;0.45;;;25.00;45.00;;;;;;4951169;28;20027;-81
2022/06/06 07:57:42;;;;;;;2.05;0.60;;;24.60;45.70;;;;;;4936778;29;20063;-81
2022/06/06 08:00:19;;;;;;;2.17;0.63;;;26.30;43.00;;;;;;4936667;29;20040;-81
2022/06/06 08:02:56;;;;;;;3.13;0.70;;;27.60;41.30;;;;;;4951608;28;20506;-81
2022/06/06 08:06:02;;;;;;;1.95;0.52;;;28.60;38.50;;;;;;4936704;29;20111;-81
2022/06/06 08:08:52;;;;;;;2.03;0.57;;;30.40;35.00;;;;;;4917265;29;20063;-79
2022/06/06 08:11:20;;;;;;;2.90;0.57;;;31.80;33.00;;;;;;4934030;29;20051;-79
2022/06/06 08:14:19;;;;;;;4.72;0.40;;;32.00;31.00;;;;;;4948491;28;20553;-79
2022/06/06 08:17:11;;;;;;;1.48;0.40;;;31.30;31.50;;;;;;4940402;28;20111;-79
2022/06/06 08:19:43;;;;;;;3.35;0.85;;;31.80;30.80;;;;;;4925725;29;20043;-79
2022/06/06 08:22:10;;;;;;;3.72;0.63;;;32.20;30.60;;;;;;4968266;28;20126;-79
2022/06/06 08:24:51;;;;;;;1.25;0.40;;;33.30;29.60;;;;;;4954427;28;20131;-79
2022/06/06 08:27:19;;;;;;;2.60;0.40;;;33.30;28.70;;;;;;4954291;28;20033;-78
2022/06/06 08:29:47;;;;;;;3.70;0.40;;;33.90;27.20;;;;;;4953835;28;20027;-79
2022/06/06 08:32:12;;;;;;;2.67;0.55;;;34.40;27.30;;;;;;4955365;29;20053;-79
2022/06/06 08:34:38;;;;;;;2.08;0.35;;;35.00;26.00;;;;;;4955577;28;20059;-79
2022/06/06 08:37:34;;;;;;;1.80;0.30;;;35.10;25.80;;;;;;4954453;28;20110;-78
2022/06/06 08:40:37;;;;;;;1.85;0.35;;;33.90;26.90;;;;;;4955527;28;20024;-78
2022/06/06 08:43:27;;;;;;;3.03;0.75;;;35.30;25.10;;;;;;4955513;28;20046;-78
2022/06/06 08:46:09;;;;;;;1.45;0.30;;;34.40;26.90;;;;;;4953064;28;20402;-80
2022/06/06 08:48:34;;;;;;;2.85;0.57;;;32.80;28.60;;;;;;4955504;29;20768;-80
2022/06/06 08:51:08;;;;;;;2.67;0.47;;;32.20;29.30;;;;;;4955414;29;20185;-80
2022/06/06 08:53:37;;;;;;;1.02;0.40;;;31.30;29.90;;;;;;4965919;28;20031;-80
2022/06/06 08:56:39;;;;;;;1.90;0.60;;;32.30;29.50;;;;;;4936219;29;20063;-81
2022/06/06 08:59:42;;;;;;;1.55;0.30;;;30.40;30.40;;;;;;4946710;29;20035;-80
2022/06/06 09:02:28;;;;;;;0.85;0.40;;;28.10;34.90;;;;;;4955302;28;20038;-80
2022/06/06 09:05:31;;;;;;;1.23;0.35;;;29.50;32.30;;;;;;4955476;28;20023;-80
2022/06/06 09:08:21;;;;;;;0.90;0.38;;;29.60;31.80;;;;;;4954292;28;20870;-80
2022/06/06 09:10:55;;;;;;;2.20;0.52;;;31.40;29.80;;;;;;4955251;28;20114;-80
2022/06/06 09:13:24;;;;;;;1.27;0.32;;;33.10;28.70;;;;;;4953182;28;20055;-81
2022/06/06 09:16:04;;;;;;;3.10;0.57;;;34.10;27.00;;;;;;4953846;28;20059;-81
2022/06/06 09:18:42;;;;;;;1.90;0.50;;;34.50;26.40;;;;;;4939514;28;20058;-81
2022/06/06 09:21:26;;;;;;;2.15;0.50;;;32.80;27.20;;;;;;4945399;29;20098;-80
2022/06/06 09:24:16;;;;;;;2.85;0.38;;;30.30;30.30;;;;;;4936060;29;20034;-80
2022/06/06 09:27:15;;;;;;;2.42;0.55;;;28.20;33.70;;;;;;4936666;29;20032;-79
2022/06/06 09:30:18;;;;;;;1.75;0.30;;;30.30;30.90;;;;;;4939613;29;20036;-80
2022/06/06 09:33:21;;;;;;;1.08;0.50;;;28.60;32.30;;;;;;4945893;29;20066;-79
2022/06/06 09:36:08;;;;;;;1.73;0.73;;;28.10;33.30;;;;;;4951285;29;20401;-80
2022/06/06 09:39:08;;;;;;;1.27;0.40;;;29.80;33.10;;;;;;4939616;29;20067;-80
2022/06/06 09:41:43;;;;;;;1.10;0.30;;;31.30;30.00;;;;;;4939182;29;20051;-80
2022/06/06 09:44:42;;;;;;;4.10;0.43;;;31.80;28.40;;;;;;4939439;29;20105;-80
2022/06/06 09:47:14;;;;;;;2.40;0.60;;;31.80;27.70;;;;;;4937828;29;20031;-80
2022/06/06 09:50:03;;;;;;;0.85;0.20;;;31.20;29.70;;;;;;4947405;29;20065;-80
2022/06/06 09:53:06;;;;;;;1.80;0.22;;;30.80;29.80;;;;;;4957030;29;20035;-80
2022/06/06 09:59:29;;;;;;;1.73;0.40;;;28.70;33.10;;;;;;4938565;29;20403;-80
2022/06/06 10:02:05;;;;;;;1.95;0.38;;;28.20;33.50;;;;;;4937666;29;20466;-80
2022/06/06 10:05:15;;;;;;;1.60;0.35;;;27.60;34.80;;;;;;4939041;29;20024;-81
2022/06/06 10:08:03;;;;;;;0.77;0.20;;;27.00;35.40;;;;;;4938982;29;20035;-81
2022/06/06 10:11:04;;;;;;;2.60;0.40;;;26.40;35.90;;;;;;4948064;29;20630;-81
2022/06/06 10:13:47;;;;;;;4.07;0.60;;;26.30;37.00;;;;;;4937370;29;20138;-80
2022/06/06 10:16:13;;;;;;;2.50;0.45;;;26.30;37.20;;;;;;4938837;29;20495;-81
2022/06/06 10:19:17;;;;;;;2.15;0.93;;;26.20;37.80;;;;;;4938766;29;20082;-80
2022/06/06 10:21:51;;;;;;;2.38;0.50;;;25.70;37.20;;;;;;4944910;29;20491;-80
2022/06/06 10:24:44;;;;;;;2.20;0.50;;;25.30;38.30;;;;;;4937515;29;20035;-81
2022/06/06 10:27:29;;;;;;;2.40;0.43;;;25.20;38.80;;;;;;4937359;29;20024;-81
2022/06/06 10:30:23;;;;;;;1.88;0.65;;;24.90;38.90;;;;;;4940039;29;20035;-80
2022/06/06 10:33:04;;;;;;;1.02;0.50;;;24.80;39.50;;;;;;4957809;28;20067;-80
2022/06/06 10:35:51;;;;;;;1.55;0.50;;;24.80;40.10;;;;;;4957618;28;20035;-80
2022/06/06 10:38:49;;;;;;;2.10;0.40;;;24.80;40.70;;;;;;4956678;28;20034;-81
2022/06/06 10:41:14;;;;;;;2.30;0.65;;;24.60;40.30;;;;;;4961842;28;20142;-81
2022/06/06 10:44:19;;;;;;;3.13;0.85;;;24.30;40.30;;;;;;4952313;29;20114;-81
2022/06/06 10:46:56;;;;;;;3.05;1.13;;;24.50;40.20;;;;;;4938066;29;20083;-80
2022/06/06 10:49:38;;;;;;;2.50;1.02;;;24.70;39.50;;;;;;4952956;29;20032;-81
2022/06/06 10:52:23;;;;;;;2.00;0.50;;;24.80;41.10;;;;;;4945247;29;20039;-81
2022/06/06 10:55:12;;;;;;;3.53;0.50;;;24.70;41.00;;;;;;4957524;28;20038;-80
2022/06/06 10:57:43;;;;;;;0.98;0.40;;;24.40;40.70;;;;;;4940892;28;20051;-81
2022/06/06 11:00:28;;;;;;;2.17;0.60;;;24.00;41.90;;;;;;4945260;29;20031;-80
2022/06/06 11:03:25;;;;;;;1.33;0.63;;;23.70;43.00;;;;;;4956814;28;20023;-80
2022/06/06 11:06:02;;;;;;;1.42;0.63;;;23.60;43.60;;;;;;4937807;29;20072;-81
2022/06/06 11:08:56;;;;;;;1.80;0.80;;;23.90;43.30;;;;;;4952623;29;20035;-81
2022/06/06 11:11:28;;;;;;;1.27;0.40;;;24.30;42.50;;;;;;4943583;29;20019;-81
2022/06/06 11:14:11;;;;;;;1.98;0.60;;;24.90;41.40;;;;;;4937958;28;20035;-81
2022/06/06 11:17:14;;;;;;;2.05;0.50;;;25.00;41.30;;;;;;4937661;29;20024;-81
2022/06/06 11:20:06;;;;;;;2.00;0.73;;;25.30;38.60;;;;;;4937639;29;20040;-81
2022/06/06 11:22:53;;;;;;;2.15;0.50;;;25.40;40.30;;;;;;4936233;29;20039;-80
2022/06/06 11:25:21;;;;;;;1.17;0.35;;;25.40;39.80;;;;;;4936159;29;20402;-80
2022/06/06 11:28:14;;;;;;;2.20;0.50;;;25.40;39.80;;;;;;4937701;29;20020;-81
2022/06/06 11:31:03;;;;;;;0.57;0.35;;;25.00;40.30;;;;;;4936403;29;20042;-81
2022/06/06 11:34:04;;;;;;;3.47;0.50;;;24.80;40.70;;;;;;4949808;29;20063;-81
2022/06/06 11:37:06;;;;;;;2.92;0.38;;;24.20;42.00;;;;;;4955350;29;20497;-81
2022/06/06 11:39:51;;;;;;;1.27;0.50;;;24.30;42.60;;;;;;4954994;29;20023;-81
2022/06/06 11:42:53;;;;;;;1.35;0.50;;;24.50;43.00;;;;;;4936942;29;20079;-81
2022/06/06 11:45:49;;;;;;;2.05;0.70;;;24.70;41.60;;;;;;4953060;29;20031;-81
2022/06/06 11:48:45;;;;;;;1.73;0.40;;;24.70;41.80;;;;;;4956438;28;20023;-81
2022/06/06 11:51:48;;;;;;;1.27;0.30;;;24.90;41.80;;;;;;4956092;28;20058;-81
2022/06/06 11:54:36;;;;;;;4.47;0.63;;;25.10;40.50;;;;;;4936183;28;20036;-81
2022/06/06 11:57:19;;;;;;;0.47;0.25;;;25.20;41.10;;;;;;4935435;29;20023;-81
2022/06/06 12:00:04;;;;;;;2.60;0.73;;;24.90;40.40;;;;;;4937114;29;20032;-81
2022/06/06 12:02:39;;;;;;;2.28;0.57;;;24.90;43.30;;;;;;4936822;29;20024;-81
2022/06/06 12:05:38;;;;;;;1.63;0.35;;;25.00;41.80;;;;;;4936828;29;20580;-81
2022/06/06 12:08:18;;;;;;;0.80;0.40;;;25.10;43.10;;;;;;4936862;29;20034;-81
2022/06/06 12:11:12;;;;;;;1.00;0.47;;;25.30;42.50;;;;;;4953498;29;20035;-81
2022/06/06 12:13:44;;;;;;;4.00;0.68;;;25.10;42.10;;;;;;4953654;28;20062;-81
2022/06/06 12:16:35;;;;;;;1.67;0.30;;;24.80;41.30;;;;;;4955885;28;20028;-81
2022/06/06 12:19:12;;;;;;;0.70;0.40;;;24.50;42.50;;;;;;4950783;28;20509;-81
2022/06/06 12:21:57;;;;;;;1.35;0.43;;;24.40;41.80;;;;;;4951216;29;20062;-81
2022/06/06 12:24:42;;;;;;;2.58;0.40;;;24.20;43.30;;;;;;4953151;28;20513;-81
2022/06/06 12:27:26;;;;;;;1.73;1.08;;;24.00;43.90;;;;;;4936793;29;20071;-80
2022/06/06 12:30:22;;;;;;;2.28;0.60;;;23.80;43.30;;;;;;4936545;29;20036;-81
2022/06/06 12:32:55;;;;;;;1.33;0.60;;;23.50;43.80;;;;;;4941237;29;20545;-81
2022/06/06 12:35:40;;;;;;;2.67;0.40;;;23.30;44.60;;;;;;4951380;28;20116;-81
2022/06/06 12:38:20;;;;;;;2.28;0.50;;;23.30;44.60;;;;;;4946737;29;20127;-81
2022/06/06 12:41:14;;;;;;;1.35;0.45;;;23.30;45.70;;;;;;4955644;28;20115;-81
2022/06/06 12:44:02;;;;;;;1.27;0.57;;;23.40;44.90;;;;;;4955826;28;20024;-81
2022/06/06 12:46:49;;;;;;;1.00;0.40;;;23.40;45.20;;;;;;4943389;28;20380;-81
2022/06/06 12:49:27;;;;;;;1.77;0.43;;;23.50;44.70;;;;;;4935212;29;20036;-81
2022/06/06 12:52:18;;;;;;;1.00;0.47;;;23.10;45.90;;;;;;4936325;29;20626;-81
2022/06/06 12:56:08;;;;;;;1.55;0.43;;;22.80;46.50;;;;;;4937826;29;20086;-81
2022/06/06 12:58:40;;;;;;;1.67;0.45;;;22.60;47.30;;;;;;4952466;29;20035;-80
2022/06/06 13:01:45;;;;;;;3.13;0.52;;;22.70;47.10;;;;;;4954188;28;20114;-80
2022/06/06 13:04:14;;;;;;;2.20;0.50;;;22.90;47.60;;;;;;4954811;28;20028;-81
2022/06/06 13:07:01;;;;;;;1.58;0.45;;;22.80;47.30;;;;;;4939061;29;20031;-81
2022/06/06 13:09:48;;;;;;;2.42;0.60;;;22.80;47.30;;;;;;4940004;29;20039;-81
2022/06/06 13:12:49;;;;;;;0.80;0.30;;;22.80;48.30;;;;;;4953528;29;20031;-81
2022/06/06 13:15:39;;;;;;;2.33;0.43;;;22.60;47.90;;;;;;4956351;29;20038;-81
2022/06/06 13:18:42;;;;;;;1.17;0.47;;;22.40;47.60;;;;;;4938569;29;20103;-81
2022/06/06 13:21:23;;;;;;;1.40;0.38;;;22.40;48.70;;;;;;4950456;29;20031;-81
2022/06/06 13:23:48;;;;;;;0.82;0.50;;;22.30;48.20;;;;;;4969529;28;20039;-80
2022/06/06 13:26:23;;;;;;;1.83;0.60;;;22.30;49.10;;;;;;4938459;29;20028;-81
2022/06/06 13:28:55;;;;;;;1.23;0.40;;;22.70;48.60;;;;;;4939534;29;20087;-81
2022/06/06 13:31:38;;;;;;;2.22;0.47;;;23.30;47.70;;;;;;4954489;29;20028;-81
2022/06/06 13:34:33;;;;;;;1.60;0.52;;;23.60;47.20;;;;;;4956639;29;20027;-81
2022/06/06 13:37:09;;;;;;;0.80;0.32;;;24.00;49.70;;;;;;4958634;28;20090;-81
2022/06/06 13:40:19;;;;;;;2.38;0.30;;;24.10;46.60;;;;;;4957391;28;20035;-80
2022/06/06 13:42:59;;;;;;;1.27;0.40;;;24.30;46.10;;;;;;4939659;29;20039;-81
2022/06/06 13:45:25;;;;;;;;;;;24.10;46.60;;;;;;4956250;29;20086;-80
2022/06/06 13:48:14;;;;;;;0.93;0.50;;;23.80;46.40;;;;;;4956453;29;19918;-81
2022/06/06 13:51:01;;;;;;;1.33;0.30;;;23.70;47.90;;;;;;4958389;29;20062;-81
2022/06/06 13:53:51;;;;;;;1.63;0.40;;;23.60;47.60;;;;;;4958295;28;20030;-81
2022/06/06 13:56:32;;;;;;;2.25;0.63;;;23.30;47.20;;;;;;4939543;29;20040;-81
2022/06/06 13:59:22;;;;;;;0.75;0.35;;;23.30;47.60;;;;;;4938943;29;20032;-80
2022/06/06 14:02:14;;;;;;;1.50;0.40;;;23.10;49.30;;;;;;4939203;29;20444;-81
2022/06/06 14:05:13;;;;;;;1.85;0.50;;;23.10;49.10;;;;;;4966681;28;20026;-81
2022/06/06 14:08:10;;;;;;;1.25;0.47;;;23.20;50.00;;;;;;4938993;29;20047;-81
2022/06/06 14:10:57;;;;;;;1.40;0.40;;;23.30;49.70;;;;;;4939801;29;20074;-80
2022/06/06 14:13:41;;;;;;;1.48;0.38;;;23.40;48.90;;;;;;4956597;28;20402;-81
2022/06/06 14:16:22;;;;;;;0.55;0.30;;;23.40;48.00;;;;;;4941404;29;20031;-80
2022/06/06 14:18:52;;;;;;;0.52;0.20;;;23.40;47.70;;;;;;4956033;28;20103;-81
2022/06/06 14:21:39;;;;;;;0.70;0.30;;;23.30;47.60;;;;;;4957963;28;20030;-80